sensor_id;sensor_type;location;lat;lon;timestamp;P1;durP1;ratioP1;P2;durP2;ratioP2
13969;SDS011;7057;49.984;8.404;2024-03-06T00:01:19;13.77;;;9.97;;
13969;SDS011;7057;49.984;8.404;2024-03-06T00:03:46;12.00;;;10.53;;
13969;SDS011;7057;49.984;8.404;2024-03-06T00:06:13;11.67;;;9.87;;
13969;SDS011;7057;49.984;8.404;2024-03-06T00:08:41;10.73;;;9.37;;
13969;SDS011;7057;49.984;8.404;2024-03-06T00:11:08;11.40;;;10.20;;
13969;SDS011;7057;49.984;8.404;2024-03-06T00:13:36;11.27;;;10.07;;
13969;SDS011;7057;49.984;8.404;2024-03-06T00:16:05;12.37;;;9.87;;
13969;SDS011;7057;49.984;8.404;2024-03-06T00:18:32;11.17;;;9.60;;
13969;SDS011;7057;49.984;8.404;2024-03-06T00:21:00;11.87;;;9.40;;
13969;SDS011;7057;49.984;8.404;2024-03-06T00:23:27;11.30;;;10.10;;
13969;SDS011;7057;49.984;8.404;2024-03-06T00:25:54;11.03;;;9.73;;
13969;SDS011;7057;49.984;8.404;2024-03-06T00:28:22;10.50;;;9.40;;
13969;SDS011;7057;49.984;8.404;2024-03-06T00:30:49;10.67;;;9.07;;
13969;SDS011;7057;49.984;8.404;2024-03-06T00:33:18;10.00;;;9.00;;
13969;SDS011;7057;49.984;8.404;2024-03-06T00:35:45;12.13;;;10.13;;
13969;SDS011;7057;49.984;8.404;2024-03-06T00:38:13;11.50;;;9.63;;
13969;SDS011;7057;49.984;8.404;2024-03-06T00:40:40;12.90;;;9.70;;
13969;SDS011;7057;49.984;8.404;2024-03-06T00:43:08;10.93;;;9.70;;
13969;SDS011;7057;49.984;8.404;2024-03-06T00:45:35;12.13;;;9.57;;
13969;SDS011;7057;49.984;8.404;2024-03-06T00:48:03;11.30;;;9.47;;
13969;SDS011;7057;49.984;8.404;2024-03-06T00:50:31;12.37;;;9.60;;
13969;SDS011;7057;49.984;8.404;2024-03-06T00:52:59;11.97;;;9.40;;
13969;SDS011;7057;49.984;8.404;2024-03-06T00:55:27;11.00;;;9.27;;
13969;SDS011;7057;49.984;8.404;2024-03-06T00:57:54;11.70;;;9.83;;
13969;SDS011;7057;49.984;8.404;2024-03-06T01:00:22;10.83;;;9.47;;
13969;SDS011;7057;49.984;8.404;2024-03-06T01:02:49;12.23;;;10.07;;
13969;SDS011;7057;49.984;8.404;2024-03-06T01:05:17;13.17;;;9.50;;
13969;SDS011;7057;49.984;8.404;2024-03-06T01:07:45;15.37;;;10.77;;
13969;SDS011;7057;49.984;8.404;2024-03-06T01:10:13;13.63;;;10.63;;
13969;SDS011;7057;49.984;8.404;2024-03-06T01:12:41;13.20;;;10.80;;
13969;SDS011;7057;49.984;8.404;2024-03-06T01:15:11;14.83;;;11.77;;
13969;SDS011;7057;49.984;8.404;2024-03-06T01:17:38;17.17;;;12.60;;
13969;SDS011;7057;49.984;8.404;2024-03-06T01:20:06;14.73;;;11.80;;
13969;SDS011;7057;49.984;8.404;2024-03-06T01:22:34;16.50;;;12.93;;
13969;SDS011;7057;49.984;8.404;2024-03-06T01:25:03;16.00;;;12.63;;
13969;SDS011;7057;49.984;8.404;2024-03-06T01:27:31;16.43;;;11.70;;
13969;SDS011;7057;49.984;8.404;2024-03-06T01:29:58;17.13;;;13.07;;
13969;SDS011;7057;49.984;8.404;2024-03-06T01:32:25;16.33;;;12.63;;
13969;SDS011;7057;49.984;8.404;2024-03-06T01:34:53;14.80;;;11.37;;
13969;SDS011;7057;49.984;8.404;2024-03-06T01:37:20;13.77;;;11.60;;
13969;SDS011;7057;49.984;8.404;2024-03-06T01:39:48;14.57;;;11.10;;
13969;SDS011;7057;49.984;8.404;2024-03-06T01:42:17;12.97;;;10.13;;
13969;SDS011;7057;49.984;8.404;2024-03-06T01:44:45;12.20;;;10.47;;
13969;SDS011;7057;49.984;8.404;2024-03-06T01:47:12;14.07;;;10.67;;
13969;SDS011;7057;49.984;8.404;2024-03-06T01:49:40;11.77;;;10.13;;
13969;SDS011;7057;49.984;8.404;2024-03-06T01:52:07;11.50;;;10.13;;
13969;SDS011;7057;49.984;8.404;2024-03-06T01:54:35;11.37;;;9.40;;
13969;SDS011;7057;49.984;8.404;2024-03-06T01:57:03;11.80;;;9.30;;
13969;SDS011;7057;49.984;8.404;2024-03-06T01:59:32;10.03;;;9.03;;
13969;SDS011;7057;49.984;8.404;2024-03-06T02:02:00;11.97;;;9.00;;
13969;SDS011;7057;49.984;8.404;2024-03-06T02:04:28;9.43;;;8.20;;
13969;SDS011;7057;49.984;8.404;2024-03-06T02:06:56;12.67;;;8.87;;
13969;SDS011;7057;49.984;8.404;2024-03-06T02:09:23;12.63;;;9.27;;
13969;SDS011;7057;49.984;8.404;2024-03-06T02:11:51;11.00;;;8.47;;
13969;SDS011;7057;49.984;8.404;2024-03-06T02:14:19;11.00;;;9.20;;
13969;SDS011;7057;49.984;8.404;2024-03-06T02:16:48;11.40;;;8.47;;
13969;SDS011;7057;49.984;8.404;2024-03-06T02:19:15;8.97;;;8.07;;
13969;SDS011;7057;49.984;8.404;2024-03-06T02:21:44;10.07;;;8.37;;
13969;SDS011;7057;49.984;8.404;2024-03-06T02:24:11;9.60;;;8.33;;
13969;SDS011;7057;49.984;8.404;2024-03-06T02:26:39;10.63;;;8.27;;
13969;SDS011;7057;49.984;8.404;2024-03-06T02:29:07;9.23;;;7.70;;
13969;SDS011;7057;49.984;8.404;2024-03-06T02:31:35;11.53;;;9.00;;
13969;SDS011;7057;49.984;8.404;2024-03-06T02:34:04;9.20;;;8.17;;
13969;SDS011;7057;49.984;8.404;2024-03-06T02:36:32;9.90;;;8.57;;
13969;SDS011;7057;49.984;8.404;2024-03-06T02:39:00;12.23;;;9.17;;
13969;SDS011;7057;49.984;8.404;2024-03-06T02:41:34;10.13;;;8.60;;
13969;SDS011;7057;49.984;8.404;2024-03-06T02:44:02;12.03;;;9.17;;
13969;SDS011;7057;49.984;8.404;2024-03-06T02:46:30;11.47;;;9.07;;
13969;SDS011;7057;49.984;8.404;2024-03-06T02:48:57;11.20;;;9.00;;
13969;SDS011;7057;49.984;8.404;2024-03-06T02:51:25;11.83;;;9.67;;
13969;SDS011;7057;49.984;8.404;2024-03-06T02:53:52;11.97;;;8.77;;
13969;SDS011;7057;49.984;8.404;2024-03-06T02:56:21;9.40;;;8.37;;
13969;SDS011;7057;49.984;8.404;2024-03-06T02:58:48;9.87;;;8.67;;
13969;SDS011;7057;49.984;8.404;2024-03-06T03:01:16;9.97;;;8.60;;
13969;SDS011;7057;49.984;8.404;2024-03-06T03:03:43;10.57;;;9.10;;
13969;SDS011;7057;49.984;8.404;2024-03-06T03:06:12;11.90;;;8.90;;
13969;SDS011;7057;49.984;8.404;2024-03-06T03:08:39;12.50;;;9.30;;
13969;SDS011;7057;49.984;8.404;2024-03-06T03:11:07;11.97;;;9.77;;
13969;SDS011;7057;49.984;8.404;2024-03-06T03:13:36;11.60;;;9.80;;
13969;SDS011;7057;49.984;8.404;2024-03-06T03:16:05;15.80;;;10.77;;
13969;SDS011;7057;49.984;8.404;2024-03-06T03:18:32;13.77;;;9.30;;
13969;SDS011;7057;49.984;8.404;2024-03-06T03:21:00;11.97;;;8.80;;
13969;SDS011;7057;49.984;8.404;2024-03-06T03:23:27;10.83;;;8.60;;
13969;SDS011;7057;49.984;8.404;2024-03-06T03:25:55;11.50;;;8.87;;
13969;SDS011;7057;49.984;8.404;2024-03-06T03:28:22;10.20;;;8.27;;
13969;SDS011;7057;49.984;8.404;2024-03-06T03:30:51;10.63;;;8.00;;
13969;SDS011;7057;49.984;8.404;2024-03-06T03:33:18;9.70;;;8.10;;
13969;SDS011;7057;49.984;8.404;2024-03-06T03:35:46;9.33;;;8.27;;
13969;SDS011;7057;49.984;8.404;2024-03-06T03:38:13;9.77;;;8.77;;
13969;SDS011;7057;49.984;8.404;2024-03-06T03:40:41;8.20;;;7.40;;
13969;SDS011;7057;49.984;8.404;2024-03-06T03:43:09;9.53;;;7.80;;
13969;SDS011;7057;49.984;8.404;2024-03-06T03:45:36;9.60;;;7.77;;
13969;SDS011;7057;49.984;8.404;2024-03-06T03:48:05;9.00;;;7.60;;
13969;SDS011;7057;49.984;8.404;2024-03-06T03:50:33;9.93;;;7.50;;
13969;SDS011;7057;49.984;8.404;2024-03-06T03:53:00;9.47;;;7.10;;
13969;SDS011;7057;49.984;8.404;2024-03-06T03:55:28;8.33;;;7.30;;
13969;SDS011;7057;49.984;8.404;2024-03-06T03:57:55;9.53;;;7.53;;
13969;SDS011;7057;49.984;8.404;2024-03-06T04:00:23;10.10;;;7.00;;
13969;SDS011;7057;49.984;8.404;2024-03-06T04:02:50;8.87;;;6.80;;
13969;SDS011;7057;49.984;8.404;2024-03-06T04:05:19;8.83;;;6.93;;
13969;SDS011;7057;49.984;8.404;2024-03-06T04:07:48;12.17;;;8.93;;
13969;SDS011;7057;49.984;8.404;2024-03-06T04:10:16;11.80;;;9.30;;
13969;SDS011;7057;49.984;8.404;2024-03-06T04:12:44;10.53;;;7.57;;
13969;SDS011;7057;49.984;8.404;2024-03-06T04:15:11;11.50;;;7.60;;
13969;SDS011;7057;49.984;8.404;2024-03-06T04:17:38;13.13;;;8.67;;
13969;SDS011;7057;49.984;8.404;2024-03-06T04:20:07;10.93;;;9.27;;
13969;SDS011;7057;49.984;8.404;2024-03-06T04:22:38;13.83;;;9.33;;
13969;SDS011;7057;49.984;8.404;2024-03-06T04:25:06;12.23;;;8.30;;
13969;SDS011;7057;49.984;8.404;2024-03-06T04:27:35;11.67;;;8.63;;
13969;SDS011;7057;49.984;8.404;2024-03-06T04:30:02;10.63;;;8.57;;
13969;SDS011;7057;49.984;8.404;2024-03-06T04:32:30;10.50;;;8.37;;
13969;SDS011;7057;49.984;8.404;2024-03-06T04:34:58;11.10;;;7.40;;
13969;SDS011;7057;49.984;8.404;2024-03-06T04:37:25;10.27;;;7.30;;
13969;SDS011;7057;49.984;8.404;2024-03-06T04:39:56;11.40;;;7.33;;
13969;SDS011;7057;49.984;8.404;2024-03-06T04:42:23;10.00;;;7.37;;
13969;SDS011;7057;49.984;8.404;2024-03-06T04:44:51;9.63;;;7.33;;
13969;SDS011;7057;49.984;8.404;2024-03-06T04:47:18;8.80;;;7.50;;
13969;SDS011;7057;49.984;8.404;2024-03-06T04:49:46;12.03;;;7.73;;
13969;SDS011;7057;49.984;8.404;2024-03-06T04:52:15;9.67;;;7.77;;
13969;SDS011;7057;49.984;8.404;2024-03-06T04:54:42;9.50;;;7.00;;
13969;SDS011;7057;49.984;8.404;2024-03-06T04:57:11;10.77;;;7.63;;
13969;SDS011;7057;49.984;8.404;2024-03-06T04:59:38;13.53;;;8.33;;
13969;SDS011;7057;49.984;8.404;2024-03-06T05:02:06;8.27;;;7.43;;
13969;SDS011;7057;49.984;8.404;2024-03-06T05:04:34;11.37;;;8.27;;
13969;SDS011;7057;49.984;8.404;2024-03-06T05:07:01;8.97;;;6.90;;
13969;SDS011;7057;49.984;8.404;2024-03-06T05:09:29;10.97;;;7.43;;
13969;SDS011;7057;49.984;8.404;2024-03-06T05:11:56;12.00;;;7.50;;
13969;SDS011;7057;49.984;8.404;2024-03-06T05:14:25;12.33;;;7.27;;
13969;SDS011;7057;49.984;8.404;2024-03-06T05:16:52;10.50;;;7.70;;
13969;SDS011;7057;49.984;8.404;2024-03-06T05:19:20;12.47;;;8.07;;
13969;SDS011;7057;49.984;8.404;2024-03-06T05:21:47;11.80;;;7.97;;
13969;SDS011;7057;49.984;8.404;2024-03-06T05:24:15;11.33;;;8.17;;
13969;SDS011;7057;49.984;8.404;2024-03-06T05:26:42;13.83;;;8.67;;
13969;SDS011;7057;49.984;8.404;2024-03-06T05:29:10;12.97;;;8.33;;
13969;SDS011;7057;49.984;8.404;2024-03-06T05:31:39;11.97;;;7.90;;
13969;SDS011;7057;49.984;8.404;2024-03-06T05:34:06;8.73;;;7.40;;
13969;SDS011;7057;49.984;8.404;2024-03-06T05:36:34;10.43;;;8.53;;
13969;SDS011;7057;49.984;8.404;2024-03-06T05:39:01;9.80;;;7.83;;
13969;SDS011;7057;49.984;8.404;2024-03-06T05:41:30;9.17;;;7.27;;
13969;SDS011;7057;49.984;8.404;2024-03-06T05:43:58;9.97;;;7.63;;
13969;SDS011;7057;49.984;8.404;2024-03-06T05:46:26;10.73;;;7.60;;
13969;SDS011;7057;49.984;8.404;2024-03-06T05:48:54;12.47;;;8.37;;
13969;SDS011;7057;49.984;8.404;2024-03-06T05:51:22;12.37;;;7.93;;
13969;SDS011;7057;49.984;8.404;2024-03-06T05:53:49;7.97;;;7.17;;
13969;SDS011;7057;49.984;8.404;2024-03-06T05:56:17;10.93;;;6.83;;
13969;SDS011;7057;49.984;8.404;2024-03-06T05:58:45;10.50;;;7.20;;
13969;SDS011;7057;49.984;8.404;2024-03-06T06:01:12;14.00;;;8.47;;
13969;SDS011;7057;49.984;8.404;2024-03-06T06:03:40;15.53;;;8.73;;
13969;SDS011;7057;49.984;8.404;2024-03-06T06:06:09;16.07;;;9.80;;
13969;SDS011;7057;49.984;8.404;2024-03-06T06:08:37;15.23;;;9.90;;
13969;SDS011;7057;49.984;8.404;2024-03-06T06:11:04;16.37;;;10.07;;
13969;SDS011;7057;49.984;8.404;2024-03-06T06:13:33;15.20;;;9.00;;
13969;SDS011;7057;49.984;8.404;2024-03-06T06:16:00;14.60;;;9.63;;
13969;SDS011;7057;49.984;8.404;2024-03-06T06:18:28;17.33;;;9.20;;
13969;SDS011;7057;49.984;8.404;2024-03-06T06:20:57;13.13;;;8.43;;
13969;SDS011;7057;49.984;8.404;2024-03-06T06:23:26;14.03;;;9.07;;
13969;SDS011;7057;49.984;8.404;2024-03-06T06:25:53;12.70;;;8.73;;
13969;SDS011;7057;49.984;8.404;2024-03-06T06:28:21;12.27;;;8.73;;
13969;SDS011;7057;49.984;8.404;2024-03-06T06:30:49;12.40;;;7.87;;
13969;SDS011;7057;49.984;8.404;2024-03-06T06:33:17;11.33;;;7.30;;
13969;SDS011;7057;49.984;8.404;2024-03-06T06:35:46;11.40;;;7.73;;
13969;SDS011;7057;49.984;8.404;2024-03-06T06:38:13;11.00;;;7.70;;
13969;SDS011;7057;49.984;8.404;2024-03-06T06:40:42;11.50;;;7.40;;
13969;SDS011;7057;49.984;8.404;2024-03-06T06:43:10;12.33;;;7.70;;
13969;SDS011;7057;49.984;8.404;2024-03-06T06:45:38;10.60;;;7.50;;
13969;SDS011;7057;49.984;8.404;2024-03-06T06:48:06;14.70;;;7.90;;
13969;SDS011;7057;49.984;8.404;2024-03-06T06:50:34;10.93;;;7.50;;
13969;SDS011;7057;49.984;8.404;2024-03-06T06:53:01;11.73;;;7.40;;
13969;SDS011;7057;49.984;8.404;2024-03-06T06:55:29;11.43;;;7.53;;
13969;SDS011;7057;49.984;8.404;2024-03-06T06:57:58;12.30;;;7.83;;
13969;SDS011;7057;49.984;8.404;2024-03-06T07:00:25;11.00;;;7.27;;
13969;SDS011;7057;49.984;8.404;2024-03-06T07:02:53;15.07;;;7.77;;
13969;SDS011;7057;49.984;8.404;2024-03-06T07:05:23;10.57;;;7.40;;
13969;SDS011;7057;49.984;8.404;2024-03-06T07:07:51;10.10;;;6.80;;
13969;SDS011;7057;49.984;8.404;2024-03-06T07:10:19;15.27;;;6.97;;
13969;SDS011;7057;49.984;8.404;2024-03-06T07:12:47;13.57;;;7.40;;
13969;SDS011;7057;49.984;8.404;2024-03-06T07:15:15;10.77;;;6.97;;
13969;SDS011;7057;49.984;8.404;2024-03-06T07:17:43;11.57;;;7.60;;
13969;SDS011;7057;49.984;8.404;2024-03-06T07:20:10;13.90;;;7.57;;
13969;SDS011;7057;49.984;8.404;2024-03-06T07:22:39;11.63;;;7.37;;
13969;SDS011;7057;49.984;8.404;2024-03-06T07:25:08;14.57;;;7.80;;
13969;SDS011;7057;49.984;8.404;2024-03-06T07:27:36;11.17;;;7.37;;
13969;SDS011;7057;49.984;8.404;2024-03-06T07:30:04;10.70;;;7.47;;
13969;SDS011;7057;49.984;8.404;2024-03-06T07:32:33;8.87;;;6.90;;
13969;SDS011;7057;49.984;8.404;2024-03-06T07:35:01;8.00;;;6.90;;
13969;SDS011;7057;49.984;8.404;2024-03-06T07:37:28;9.70;;;6.47;;
13969;SDS011;7057;49.984;8.404;2024-03-06T07:39:56;12.37;;;6.90;;
13969;SDS011;7057;49.984;8.404;2024-03-06T07:42:24;10.00;;;6.53;;
13969;SDS011;7057;49.984;8.404;2024-03-06T07:44:52;7.53;;;6.27;;
13969;SDS011;7057;49.984;8.404;2024-03-06T07:47:20;10.83;;;6.70;;
13969;SDS011;7057;49.984;8.404;2024-03-06T07:49:49;10.67;;;6.70;;
13969;SDS011;7057;49.984;8.404;2024-03-06T07:52:16;10.57;;;6.57;;
13969;SDS011;7057;49.984;8.404;2024-03-06T07:54:44;10.80;;;6.77;;
13969;SDS011;7057;49.984;8.404;2024-03-06T07:57:11;8.37;;;7.07;;
13969;SDS011;7057;49.984;8.404;2024-03-06T07:59:38;9.93;;;6.33;;
13969;SDS011;7057;49.984;8.404;2024-03-06T08:02:06;9.10;;;6.17;;
13969;SDS011;7057;49.984;8.404;2024-03-06T08:04:34;7.97;;;5.87;;
13969;SDS011;7057;49.984;8.404;2024-03-06T08:07:03;8.50;;;6.67;;
13969;SDS011;7057;49.984;8.404;2024-03-06T08:09:30;7.37;;;5.57;;
13969;SDS011;7057;49.984;8.404;2024-03-06T08:11:58;9.13;;;6.17;;
13969;SDS011;7057;49.984;8.404;2024-03-06T08:14:26;7.10;;;6.10;;
13969;SDS011;7057;49.984;8.404;2024-03-06T08:16:54;10.13;;;6.23;;
13969;SDS011;7057;49.984;8.404;2024-03-06T08:19:22;8.27;;;6.40;;
13969;SDS011;7057;49.984;8.404;2024-03-06T08:21:51;6.67;;;5.63;;
13969;SDS011;7057;49.984;8.404;2024-03-06T08:24:20;6.70;;;5.63;;
13969;SDS011;7057;49.984;8.404;2024-03-06T08:26:47;9.67;;;6.33;;
13969;SDS011;7057;49.984;8.404;2024-03-06T08:29:14;9.20;;;6.43;;
13969;SDS011;7057;49.984;8.404;2024-03-06T08:31:42;9.73;;;6.10;;
13969;SDS011;7057;49.984;8.404;2024-03-06T08:34:09;10.80;;;6.60;;
13969;SDS011;7057;49.984;8.404;2024-03-06T08:36:37;10.40;;;6.17;;
13969;SDS011;7057;49.984;8.404;2024-03-06T08:39:04;7.17;;;6.13;;
13969;SDS011;7057;49.984;8.404;2024-03-06T08:41:33;12.43;;;6.47;;
13969;SDS011;7057;49.984;8.404;2024-03-06T08:44:01;9.03;;;6.27;;
13969;SDS011;7057;49.984;8.404;2024-03-06T08:46:28;8.83;;;6.93;;
13969;SDS011;7057;49.984;8.404;2024-03-06T08:48:56;8.87;;;6.90;;
13969;SDS011;7057;49.984;8.404;2024-03-06T08:51:23;15.73;;;7.17;;
13969;SDS011;7057;49.984;8.404;2024-03-06T08:53:51;12.53;;;7.60;;
13969;SDS011;7057;49.984;8.404;2024-03-06T08:56:18;10.70;;;7.27;;
13969;SDS011;7057;49.984;8.404;2024-03-06T08:58:47;13.67;;;7.17;;
13969;SDS011;7057;49.984;8.404;2024-03-06T09:01:14;8.37;;;6.90;;
13969;SDS011;7057;49.984;8.404;2024-03-06T09:03:42;10.40;;;7.93;;
13969;SDS011;7057;49.984;8.404;2024-03-06T09:06:09;9.70;;;8.67;;
13969;SDS011;7057;49.984;8.404;2024-03-06T09:08:38;13.67;;;8.97;;
13969;SDS011;7057;49.984;8.404;2024-03-06T09:11:05;14.37;;;8.50;;
13969;SDS011;7057;49.984;8.404;2024-03-06T09:13:33;11.57;;;8.50;;
13969;SDS011;7057;49.984;8.404;2024-03-06T09:16:01;12.80;;;8.20;;
13969;SDS011;7057;49.984;8.404;2024-03-06T09:18:29;11.53;;;8.30;;
13969;SDS011;7057;49.984;8.404;2024-03-06T09:20:57;13.03;;;9.70;;
13969;SDS011;7057;49.984;8.404;2024-03-06T09:23:24;12.63;;;9.80;;
13969;SDS011;7057;49.984;8.404;2024-03-06T09:25:55;11.73;;;10.47;;
13969;SDS011;7057;49.984;8.404;2024-03-06T09:28:22;12.40;;;10.23;;
13969;SDS011;7057;49.984;8.404;2024-03-06T09:30:50;14.60;;;12.13;;
13969;SDS011;7057;49.984;8.404;2024-03-06T09:33:18;13.27;;;11.30;;
13969;SDS011;7057;49.984;8.404;2024-03-06T09:35:46;14.53;;;12.07;;
13969;SDS011;7057;49.984;8.404;2024-03-06T09:38:13;12.90;;;11.43;;
13969;SDS011;7057;49.984;8.404;2024-03-06T09:40:41;17.93;;;13.97;;
13969;SDS011;7057;49.984;8.404;2024-03-06T09:43:08;17.37;;;14.07;;
13969;SDS011;7057;49.984;8.404;2024-03-06T09:45:36;15.63;;;14.03;;
13969;SDS011;7057;49.984;8.404;2024-03-06T09:48:03;15.87;;;13.37;;
13969;SDS011;7057;49.984;8.404;2024-03-06T09:50:33;15.40;;;12.67;;
13969;SDS011;7057;49.984;8.404;2024-03-06T09:53:06;15.13;;;13.10;;
13969;SDS011;7057;49.984;8.404;2024-03-06T09:55:35;16.77;;;12.90;;
13969;SDS011;7057;49.984;8.404;2024-03-06T09:58:03;15.63;;;13.77;;
13969;SDS011;7057;49.984;8.404;2024-03-06T10:00:31;17.90;;;15.97;;
13969;SDS011;7057;49.984;8.404;2024-03-06T10:02:59;17.73;;;14.93;;
13969;SDS011;7057;49.984;8.404;2024-03-06T10:05:27;16.73;;;15.03;;
13969;SDS011;7057;49.984;8.404;2024-03-06T10:07:58;19.70;;;15.63;;
13969;SDS011;7057;49.984;8.404;2024-03-06T10:10:26;17.50;;;15.60;;
13969;SDS011;7057;49.984;8.404;2024-03-06T10:12:53;18.93;;;16.00;;
13969;SDS011;7057;49.984;8.404;2024-03-06T10:15:22;18.00;;;15.70;;
13969;SDS011;7057;49.984;8.404;2024-03-06T10:17:52;20.07;;;17.03;;
13969;SDS011;7057;49.984;8.404;2024-03-06T10:20:19;20.03;;;16.20;;
13969;SDS011;7057;49.984;8.404;2024-03-06T10:22:48;21.00;;;16.90;;
13969;SDS011;7057;49.984;8.404;2024-03-06T10:25:19;20.10;;;16.80;;
13969;SDS011;7057;49.984;8.404;2024-03-06T10:28:00;18.43;;;16.47;;
13969;SDS011;7057;49.984;8.404;2024-03-06T10:30:27;19.03;;;16.00;;
13969;SDS011;7057;49.984;8.404;2024-03-06T10:32:55;17.40;;;15.60;;
13969;SDS011;7057;49.984;8.404;2024-03-06T10:35:23;18.47;;;16.47;;
13969;SDS011;7057;49.984;8.404;2024-03-06T10:37:51;20.13;;;17.77;;
13969;SDS011;7057;49.984;8.404;2024-03-06T10:40:21;19.23;;;17.23;;
13969;SDS011;7057;49.984;8.404;2024-03-06T10:42:50;20.97;;;16.67;;
13969;SDS011;7057;49.984;8.404;2024-03-06T10:45:19;17.87;;;15.97;;
13969;SDS011;7057;49.984;8.404;2024-03-06T10:47:47;19.53;;;17.47;;
13969;SDS011;7057;49.984;8.404;2024-03-06T10:50:16;20.33;;;17.63;;
13969;SDS011;7057;49.984;8.404;2024-03-06T10:52:46;19.07;;;16.67;;
13969;SDS011;7057;49.984;8.404;2024-03-06T10:55:14;18.97;;;16.67;;
13969;SDS011;7057;49.984;8.404;2024-03-06T10:57:44;18.83;;;16.93;;
13969;SDS011;7057;49.984;8.404;2024-03-06T11:00:13;21.33;;;16.53;;
13969;SDS011;7057;49.984;8.404;2024-03-06T11:02:46;21.07;;;16.60;;
13969;SDS011;7057;49.984;8.404;2024-03-06T11:05:15;22.23;;;17.43;;
13969;SDS011;7057;49.984;8.404;2024-03-06T11:07:42;20.10;;;17.00;;
13969;SDS011;7057;49.984;8.404;2024-03-06T11:10:10;21.43;;;16.87;;
13969;SDS011;7057;49.984;8.404;2024-03-06T11:12:41;19.23;;;16.50;;
13969;SDS011;7057;49.984;8.404;2024-03-06T11:15:14;19.87;;;16.33;;
13969;SDS011;7057;49.984;8.404;2024-03-06T11:17:42;21.27;;;17.37;;
13969;SDS011;7057;49.984;8.404;2024-03-06T11:20:13;18.93;;;16.97;;
13969;SDS011;7057;49.984;8.404;2024-03-06T11:28:19;17.43;;;15.73;;
13969;SDS011;7057;49.984;8.404;2024-03-06T11:30:54;18.73;;;15.70;;
13969;SDS011;7057;49.984;8.404;2024-03-06T11:33:23;17.90;;;16.00;;
13969;SDS011;7057;49.984;8.404;2024-03-06T11:38:37;17.77;;;14.87;;
13969;SDS011;7057;49.984;8.404;2024-03-06T11:41:05;19.07;;;15.83;;
13969;SDS011;7057;49.984;8.404;2024-03-06T11:43:41;19.97;;;16.30;;
13969;SDS011;7057;49.984;8.404;2024-03-06T11:46:10;21.30;;;16.20;;
13969;SDS011;7057;49.984;8.404;2024-03-06T11:48:38;18.97;;;16.40;;
13969;SDS011;7057;49.984;8.404;2024-03-06T11:51:06;19.87;;;15.67;;
13969;SDS011;7057;49.984;8.404;2024-03-06T11:53:33;20.13;;;16.10;;
13969;SDS011;7057;49.984;8.404;2024-03-06T11:56:01;17.63;;;15.73;;
13969;SDS011;7057;49.984;8.404;2024-03-06T11:58:29;20.10;;;16.47;;
13969;SDS011;7057;49.984;8.404;2024-03-06T12:00:56;20.23;;;17.27;;
13969;SDS011;7057;49.984;8.404;2024-03-06T12:03:26;19.80;;;15.77;;
13969;SDS011;7057;49.984;8.404;2024-03-06T12:05:54;20.50;;;16.17;;
13969;SDS011;7057;49.984;8.404;2024-03-06T12:08:21;24.53;;;18.87;;
13969;SDS011;7057;49.984;8.404;2024-03-06T12:10:49;23.20;;;18.37;;
13969;SDS011;7057;49.984;8.404;2024-03-06T12:13:17;22.40;;;18.20;;
13969;SDS011;7057;49.984;8.404;2024-03-06T12:15:46;21.47;;;18.10;;
13969;SDS011;7057;49.984;8.404;2024-03-06T12:18:13;20.13;;;15.97;;
13969;SDS011;7057;49.984;8.404;2024-03-06T12:20:45;17.93;;;13.73;;
13969;SDS011;7057;49.984;8.404;2024-03-06T12:23:20;18.33;;;15.57;;
13969;SDS011;7057;49.984;8.404;2024-03-06T12:25:48;20.47;;;16.07;;
13969;SDS011;7057;49.984;8.404;2024-03-06T12:28:15;18.50;;;15.90;;
13969;SDS011;7057;49.984;8.404;2024-03-06T12:30:43;19.43;;;15.53;;
13969;SDS011;7057;49.984;8.404;2024-03-06T12:33:15;18.77;;;16.00;;
13969;SDS011;7057;49.984;8.404;2024-03-06T12:35:44;18.37;;;15.63;;
13969;SDS011;7057;49.984;8.404;2024-03-06T12:38:13;18.17;;;15.23;;
13969;SDS011;7057;49.984;8.404;2024-03-06T12:40:41;19.73;;;15.57;;
13969;SDS011;7057;49.984;8.404;2024-03-06T12:43:09;18.17;;;15.33;;
13969;SDS011;7057;49.984;8.404;2024-03-06T12:45:36;20.17;;;15.83;;
13969;SDS011;7057;49.984;8.404;2024-03-06T12:48:04;20.00;;;16.37;;
13969;SDS011;7057;49.984;8.404;2024-03-06T12:50:32;20.20;;;16.13;;
13969;SDS011;7057;49.984;8.404;2024-03-06T12:53:01;19.93;;;16.33;;
13969;SDS011;7057;49.984;8.404;2024-03-06T12:55:30;20.53;;;16.30;;
13969;SDS011;7057;49.984;8.404;2024-03-06T12:57:58;17.50;;;15.27;;
13969;SDS011;7057;49.984;8.404;2024-03-06T13:00:25;19.57;;;15.37;;
13969;SDS011;7057;49.984;8.404;2024-03-06T13:02:53;19.50;;;15.80;;
13969;SDS011;7057;49.984;8.404;2024-03-06T13:05:20;17.37;;;15.33;;
13969;SDS011;7057;49.984;8.404;2024-03-06T13:07:48;17.50;;;15.27;;
13969;SDS011;7057;49.984;8.404;2024-03-06T13:10:17;18.97;;;15.97;;
13969;SDS011;7057;49.984;8.404;2024-03-06T13:12:44;18.57;;;15.50;;
13969;SDS011;7057;49.984;8.404;2024-03-06T13:15:11;19.97;;;15.13;;
13969;SDS011;7057;49.984;8.404;2024-03-06T13:17:39;19.10;;;15.37;;
13969;SDS011;7057;49.984;8.404;2024-03-06T13:20:07;19.87;;;16.73;;
13969;SDS011;7057;49.984;8.404;2024-03-06T13:22:37;19.93;;;16.53;;
13969;SDS011;7057;49.984;8.404;2024-03-06T13:25:04;18.63;;;16.10;;
13969;SDS011;7057;49.984;8.404;2024-03-06T13:27:33;17.83;;;15.03;;
13969;SDS011;7057;49.984;8.404;2024-03-06T13:30:01;17.67;;;15.13;;
13969;SDS011;7057;49.984;8.404;2024-03-06T13:32:30;18.83;;;15.87;;
13969;SDS011;7057;49.984;8.404;2024-03-06T13:34:58;20.10;;;16.63;;
13969;SDS011;7057;49.984;8.404;2024-03-06T13:37:25;17.53;;;15.37;;
13969;SDS011;7057;49.984;8.404;2024-03-06T13:39:53;19.77;;;15.93;;
13969;SDS011;7057;49.984;8.404;2024-03-06T13:42:25;17.73;;;15.13;;
13969;SDS011;7057;49.984;8.404;2024-03-06T13:44:54;18.03;;;15.33;;
13969;SDS011;7057;49.984;8.404;2024-03-06T13:47:22;17.07;;;14.63;;
13969;SDS011;7057;49.984;8.404;2024-03-06T13:49:49;18.97;;;15.40;;
13969;SDS011;7057;49.984;8.404;2024-03-06T13:52:17;19.70;;;15.53;;
13969;SDS011;7057;49.984;8.404;2024-03-06T13:54:46;22.00;;;17.20;;
13969;SDS011;7057;49.984;8.404;2024-03-06T13:57:13;20.90;;;16.27;;
13969;SDS011;7057;49.984;8.404;2024-03-06T13:59:41;18.47;;;14.97;;
13969;SDS011;7057;49.984;8.404;2024-03-06T14:02:10;19.97;;;15.97;;
13969;SDS011;7057;49.984;8.404;2024-03-06T14:04:37;19.73;;;16.57;;
13969;SDS011;7057;49.984;8.404;2024-03-06T14:07:05;20.40;;;15.60;;
13969;SDS011;7057;49.984;8.404;2024-03-06T14:09:32;20.60;;;14.70;;
13969;SDS011;7057;49.984;8.404;2024-03-06T14:12:00;21.03;;;15.77;;
13969;SDS011;7057;49.984;8.404;2024-03-06T14:14:27;21.90;;;17.30;;
13969;SDS011;7057;49.984;8.404;2024-03-06T14:16:55;20.00;;;15.47;;
13969;SDS011;7057;49.984;8.404;2024-03-06T14:19:25;22.33;;;17.37;;
13969;SDS011;7057;49.984;8.404;2024-03-06T14:21:52;21.90;;;18.00;;
13969;SDS011;7057;49.984;8.404;2024-03-06T14:24:20;22.80;;;18.47;;
13969;SDS011;7057;49.984;8.404;2024-03-06T14:26:47;22.53;;;18.57;;
13969;SDS011;7057;49.984;8.404;2024-03-06T14:29:15;22.53;;;18.43;;
13969;SDS011;7057;49.984;8.404;2024-03-06T14:31:42;22.70;;;18.50;;
13969;SDS011;7057;49.984;8.404;2024-03-06T14:34:10;23.03;;;17.87;;
13969;SDS011;7057;49.984;8.404;2024-03-06T14:36:40;20.60;;;17.70;;
13969;SDS011;7057;49.984;8.404;2024-03-06T14:39:07;20.63;;;17.00;;
13969;SDS011;7057;49.984;8.404;2024-03-06T14:41:35;17.20;;;14.90;;
13969;SDS011;7057;49.984;8.404;2024-03-06T14:44:03;18.33;;;15.30;;
13969;SDS011;7057;49.984;8.404;2024-03-06T14:46:30;17.30;;;14.60;;
13969;SDS011;7057;49.984;8.404;2024-03-06T14:48:58;20.13;;;15.23;;
13969;SDS011;7057;49.984;8.404;2024-03-06T14:51:28;19.83;;;15.07;;
13969;SDS011;7057;49.984;8.404;2024-03-06T14:53:56;17.27;;;15.23;;
13969;SDS011;7057;49.984;8.404;2024-03-06T14:56:24;17.20;;;14.03;;